D/T METAR WX W/DIR W/SPE G/SPE TEMP DEWP
9/12/19 11:50 EGVP 091150Z 31013KT 9999 FEW018 08/03 Q1014 NOSIG RMK BLU BLU NW (310°) 15.0mph 8°C 3°C
9/12/19 11:23 EGVP 091123Z 31014G25KT 9999 -SHRA FEW022 09/03 Q1013 NOSIG RMK BLU BLU -SHRA NW (310°) 16.1mph 28.8mph 9°C 3°C
9/12/19 10:50 EGVP 091050Z 32016KT 9999 FEW024 09/03 Q1012 NOSIG RMK BLU BLU NW (320°) 18.4mph 9°C 3°C
9/12/19 10:25 EGVP 091025Z 31016G26KT 9999 VCSH FEW020 08/04 Q1012 NOSIG RMK BLU BLU VCSH NW (310°) 18.4mph 29.9mph 8°C 4°C
9/12/19 09:50 EGVP 090950Z 31016KT 9999 FEW040 08/04 Q1010 NOSIG RMK BLU BLU NW (310°) 18.4mph 8°C 4°C
9/12/19 09:23 EGVP 090923Z 31014G24KT 9999 FEW040 08/04 Q1009 NOSIG RMK BLU BLU NW (310°) 16.1mph 27.6mph 8°C 4°C
9/12/19 08:50 EGVP 090850Z 31015G25KT 9999 FEW015 07/04 Q1008 NOSIG RMK BLU BLU NW (310°) 17.3mph 28.8mph 7°C 4°C
9/12/19 08:21 EGVP 090821Z 31014KT 9999 FEW041 07/04 Q1006 TEMPO 32016G26KT RMK BLU TEMPO BLU NW (310°) 16.1mph 7°C 4°C
9/12/19 07:50 EGVP 090750Z 31017KT 9999 FEW015 08/04 Q1005 TEMPO 31017G27KT RMK BLU TEMPO BLU NW (310°) 19.6mph 8°C 4°C
9/12/19 06:50 EGVP 090650Z 33012KT 9999 BKN038 08/05 Q1002 RMK BLU NNW (330°) 13.8mph 8°C 5°C
9/12/19 05:50 EGVP 090550Z 32020G31KT 9999 BKN040 09/04 Q0999 RMK BLU NW (320°) 23.0mph 35.7mph 9°C 4°C
9/12/19 04:50 EGVP 090450Z AUTO 30023KT 9999 // BKN024/// SCT042/// 09/06 Q0996 WNW (300°) 26.5mph 9°C 6°C
9/12/19 03:50 EGVP 090350Z AUTO 27022KT 9999 // BKN027/// SCT090/// 09/05 Q0993 W (270°) 25.3mph 9°C 5°C
9/12/19 02:50 EGVP 090250Z AUTO 27021G31KT 9999 // FEW026/// BKN030/// 08/05 Q0993 W (270°) 24.2mph 35.7mph 8°C 5°C
9/12/19 01:50 EGVP 090150Z AUTO 28018G32KT 9999 // FEW028/// SCT038/// 08/04 Q0993 W (280°) 20.7mph 36.8mph 8°C 4°C
9/12/19 00:50 EGVP 090050Z AUTO 28020G30KT 9999 // SCT035/// SCT045/// 08/04 Q0993 W (280°) 23.0mph 34.5mph 8°C 4°C
8/12/19 23:50 EGVP 082350Z AUTO 27023G36KT 9999 // FEW017/// BKN024/// BKN041/// 08/05 Q0992 W (270°) 26.5mph 41.4mph 8°C 5°C
8/12/19 22:50 EGVP 082250Z AUTO 22015KT 9999 // FEW021/// BKN025/// BKN032/// 07/05 Q0992 SW (220°) 17.3mph 7°C 5°C
8/12/19 21:50 EGVP 082150Z AUTO 22012KT 9999 // BKN032/// 06/04 Q0994 SW (220°) 13.8mph 6°C 4°C
8/12/19 20:50 EGVP 082050Z AUTO 24012G23KT 9999 // SCT026/// SCT060/// BKN090/// 06/03 Q0996 WSW (240°) 13.8mph 26.5mph 6°C 3°C
8/12/19 19:50 EGVP 081950Z AUTO 24012KT 9999 // BKN190/// 06/02 Q0997 WSW (240°) 13.8mph 6°C 2°C
8/12/19 18:50 EGVP 081850Z AUTO 25016KT 9999 // FEW130/// 06/02 Q0998 WSW (250°) 18.4mph 6°C 2°C
8/12/19 17:50 EGVP 081750Z AUTO 24016KT 9999 // FEW031/// SCT039/// 07/03 Q0998 WSW (240°) 18.4mph 7°C 3°C
8/12/19 16:50 EGVP 081650Z AUTO 24013KT 9999 // SCT042/// 07/03 Q0999 WSW (240°) 15.0mph 7°C 3°C
8/12/19 15:50 EGVP 081550Z AUTO 24010G25KT 9999 // BKN170/// 07/04 Q1000 WSW (240°) 11.5mph 28.8mph 7°C 4°C
8/12/19 14:50 EGVP 081450Z AUTO 24011KT 9999 // FEW080/// BKN140/// 06/04 Q1000 WSW (240°) 12.7mph 6°C 4°C
8/12/19 13:50 EGVP 081350Z AUTO 24015G26KT 9999 // FEW037/// BKN060/// BKN130/// 09/04 Q1000 WSW (240°) 17.3mph 29.9mph 9°C 4°C
8/12/19 12:50 EGVP 081250Z AUTO 25015G25KT 9000 // FEW032/// SCT038/// BKN110/// 10/04 Q1001 WSW (250°) 17.3mph 28.8mph 10°C 4°C
8/12/19 11:50 EGVP 081150Z AUTO 26020G32KT 9999 // SCT110/// 10/04 Q1002 W (260°) 23.0mph 36.8mph 10°C 4°C
8/12/19 10:50 EGVP 081050Z AUTO 24008KT 9999 // FEW030/// SCT034/// 08/06 Q1002 WSW (240°) 9.2mph 8°C 6°C
8/12/19 09:50 EGVP 080950Z AUTO 24012KT 9999 // BKN030/// BKN080/// 09/06 Q1003 WSW (240°) 13.8mph 9°C 6°C
8/12/19 08:50 EGVP 080850Z AUTO 25012KT 9999 // BKN030/// 09/05 Q1002 WSW (250°) 13.8mph 9°C 5°C
8/12/19 07:50 EGVP 080750Z AUTO 24012KT 9999 // BKN030/// SCT037/// BKN046/// 09/06 Q1002 WSW (240°) 13.8mph 9°C 6°C
8/12/19 06:50 EGVP 080650Z AUTO 25012KT 9999 // FEW030/// BKN034/// BKN045/// 09/06 Q1001 WSW (250°) 13.8mph 9°C 6°C
8/12/19 05:50 EGVP 080550Z AUTO 25014KT 9999 // FEW024/// SCT030/// 10/07 Q1001 WSW (250°) 16.1mph 10°C 7°C
8/12/19 04:50 EGVP 080450Z AUTO 25016G27KT 9999 // FEW050/// 11/08 Q1000 WSW (250°) 18.4mph 31.1mph 11°C 8°C
8/12/19 03:50 EGVP 080350Z AUTO 23015KT 9999 // SCT007/// BKN015/// 12/11 Q1000 SW (230°) 17.3mph 12°C 11°C
8/12/19 02:50 EGVP 080250Z AUTO 22017G27KT 9999 // BKN008/// BKN016/// 11/10 Q1001 SW (220°) 19.6mph 31.1mph 11°C 10°C
8/12/19 01:50 EGVP 080150Z AUTO 22016G26KT 9999 // BKN007/// BKN015/// 10/10 Q1003 SW (220°) 18.4mph 29.9mph 10°C 10°C
8/12/19 00:50 EGVP 080050Z AUTO 21016KT 6000 // OVC010/// 10/09 Q1003 SSW (210°) 18.4mph 10°C 9°C
7/12/19 23:50 EGVP 072350Z AUTO 21016G27KT 9999 // OVC012/// 11/08 Q1005 SSW (210°) 18.4mph 31.1mph 11°C 8°C
7/12/19 22:50 EGVP 072250Z AUTO 21015G25KT 9999 // OVC009/// 10/08 Q1007 SSW (210°) 17.3mph 28.8mph 10°C 8°C
7/12/19 21:50 EGVP 072150Z AUTO 22014G24KT 9999 // OVC008/// 10/09 Q1009 SW (220°) 16.1mph 27.6mph 10°C 9°C
7/12/19 20:50 EGVP 072050Z AUTO 21014KT 9999 // OVC009/// 10/08 Q1010 SSW (210°) 16.1mph 10°C 8°C
7/12/19 19:50 EGVP 071950Z AUTO 20009KT 9999 // OVC011/// 10/08 Q1010 SSW (200°) 10.4mph 10°C 8°C
7/12/19 18:50 EGVP 071850Z AUTO 21010KT 9999 // OVC014/// 10/07 Q1012 SSW (210°) 11.5mph 10°C 7°C
7/12/19 17:50 EGVP 071750Z AUTO 23008KT 9999 // OVC016/// 10/07 Q1013 SW (230°) 9.2mph 10°C 7°C
7/12/19 16:50 EGVP 071650Z AUTO 22008KT 9999 // OVC018/// 09/07 Q1012 SW (220°) 9.2mph 9°C 7°C